Time;durP1;ratioP1;P1;durP2;ratioP2;P2;SDS_P1;SDS_P2;PMS_P1;PMS_P2;Temp;Humidity;BMP_temperature;BMP_pressure;BME280_temperature;BME280_humidity;BME280_pressure;Samples;Min_cycle;Max_cycle;Signal;HPM_P1;HPM_P2
2021/08/18 00:00:29;;;;;;;277.97;265.77;;;;;;;;;;4972508;28;20501;-69
2021/08/18 00:02:57;;;;;;;264.80;253.00;;;;;;;;;;4973350;28;20454;-70
2021/08/18 00:05:24;;;;;;;274.27;261.87;;;;;;;;;;4972917;28;20475;-70
2021/08/18 00:07:51;;;;;;;269.50;257.60;;;;;;;;;;4973982;28;20489;-70
2021/08/18 00:10:18;;;;;;;266.90;255.20;;;;;;;;;;4959991;28;20498;-70
2021/08/18 00:12:46;;;;;;;261.80;250.40;;;;;;;;;;4961836;28;20505;-69
2021/08/18 00:15:14;;;;;;;251.83;240.63;;;;;;;;;;4972979;28;20471;-69
2021/08/18 00:17:42;;;;;;;264.40;252.80;;;;;;;;;;4971817;28;20477;-69
2021/08/18 00:20:11;;;;;;;261.87;250.67;;;;;;;;;;4968303;28;20471;-69
2021/08/18 00:22:38;;;;;;;253.07;242.43;;;;;;;;;;4972369;28;20468;-69
2021/08/18 00:25:06;;;;;;;250.80;239.70;;;;;;;;;;4973194;28;20452;-69
2021/08/18 00:27:33;;;;;;;254.17;243.37;;;;;;;;;;4971507;28;20821;-69
2021/08/18 00:30:01;;;;;;;244.20;233.93;;;;;;;;;;4973476;28;20487;-69
2021/08/18 00:32:28;;;;;;;243.73;233.47;;;;;;;;;;4974875;28;21016;-69
2021/08/18 00:34:55;;;;;;;229.07;219.27;;;;;;;;;;4973338;28;20838;-69
2021/08/18 00:37:23;;;;;;;237.00;226.83;;;;;;;;;;4974409;28;20467;-69
2021/08/18 00:39:51;;;;;;;248.80;237.93;;;;;;;;;;4974365;28;20467;-70
2021/08/18 00:42:19;;;;;;;244.47;233.87;;;;;;;;;;4957038;28;20475;-69
2021/08/18 00:44:46;;;;;;;240.77;230.57;;;;;;;;;;4971434;28;20451;-69
2021/08/18 00:47:13;;;;;;;239.10;229.00;;;;;;;;;;4972233;28;20467;-70
2021/08/18 00:49:40;;;;;;;223.23;213.43;;;;;;;;;;4972667;28;20491;-69
2021/08/18 00:52:08;;;;;;;233.83;223.90;;;;;;;;;;4972925;28;20486;-70
2021/08/18 00:54:36;;;;;;;240.40;230.30;;;;;;;;;;4971360;28;20475;-69
2021/08/18 00:57:04;;;;;;;236.17;226.47;;;;;;;;;;4973125;28;20945;-70
2021/08/18 00:59:31;;;;;;;233.20;223.60;;;;;;;;;;4972545;28;20490;-69
2021/08/18 01:01:59;;;;;;;222.40;213.10;;;;;;;;;;4972904;28;20463;-69
2021/08/18 01:04:26;;;;;;;223.30;213.80;;;;;;;;;;4970668;28;20481;-70
2021/08/18 01:06:53;;;;;;;216.27;206.63;;;;;;;;;;4973443;28;20821;-69
2021/08/18 01:09:21;;;;;;;214.60;205.50;;;;;;;;;;4973842;28;20463;-69
2021/08/18 01:11:51;;;;;;;210.13;200.87;;;;;;;;;;4976538;28;20864;-70
2021/08/18 01:14:19;;;;;;;226.83;217.23;;;;;;;;;;4973136;28;20468;-70
2021/08/18 01:16:47;;;;;;;223.07;213.40;;;;;;;;;;4975074;28;20471;-70
2021/08/18 01:19:15;;;;;;;228.57;218.73;;;;;;;;;;4970546;28;20463;-70
2021/08/18 01:21:43;;;;;;;227.20;217.53;;;;;;;;;;4976800;28;20455;-70
2021/08/18 01:24:11;;;;;;;224.90;214.90;;;;;;;;;;4976482;28;20519;-70
2021/08/18 01:26:39;;;;;;;223.57;214.23;;;;;;;;;;4976705;28;20467;-70
2021/08/18 01:29:07;;;;;;;203.20;193.63;;;;;;;;;;4975882;28;20457;-69
2021/08/18 01:31:35;;;;;;;226.57;216.97;;;;;;;;;;4975532;28;20478;-69
2021/08/18 01:34:03;;;;;;;217.40;208.40;;;;;;;;;;4975558;28;20467;-70
2021/08/18 01:36:30;;;;;;;209.87;200.97;;;;;;;;;;4977092;28;20542;-68
2021/08/18 01:39:00;;;;;;;225.67;215.50;;;;;;;;;;4977388;28;20465;-69
2021/08/18 01:41:27;;;;;;;209.77;200.87;;;;;;;;;;4975284;28;20845;-69
2021/08/18 01:43:55;;;;;;;229.07;219.77;;;;;;;;;;4976149;28;20452;-69
2021/08/18 01:46:23;;;;;;;233.40;223.70;;;;;;;;;;4975815;28;20472;-69
2021/08/18 01:48:50;;;;;;;228.13;218.77;;;;;;;;;;4974062;28;20481;-70
2021/08/18 01:51:17;;;;;;;230.70;221.00;;;;;;;;;;4973945;28;20467;-68
2021/08/18 01:53:46;;;;;;;217.53;208.53;;;;;;;;;;4976883;28;21028;-68
2021/08/18 01:56:13;;;;;;;215.00;206.27;;;;;;;;;;4977389;28;20475;-69
2021/08/18 01:58:40;;;;;;;194.57;186.07;;;;;;;;;;4974289;28;20475;-68
2021/08/18 02:01:09;;;;;;;203.83;195.63;;;;;;;;;;4975909;28;20487;-69
2021/08/18 02:03:37;;;;;;;191.37;183.10;;;;;;;;;;4969065;28;20475;-69
2021/08/18 02:06:04;;;;;;;191.80;184.00;;;;;;;;;;4971409;28;20478;-69
2021/08/18 02:08:32;;;;;;;203.33;195.03;;;;;;;;;;4975453;28;20451;-68
2021/08/18 02:10:59;;;;;;;201.83;193.43;;;;;;;;;;4971345;28;20850;-69
2021/08/18 02:13:27;;;;;;;200.20;191.63;;;;;;;;;;4975829;28;20491;-69
2021/08/18 02:15:54;;;;;;;199.50;191.27;;;;;;;;;;4963140;28;20476;-69
2021/08/18 02:18:21;;;;;;;199.00;190.50;;;;;;;;;;4961766;28;20998;-69
2021/08/18 02:20:50;;;;;;;199.43;191.00;;;;;;;;;;4975818;28;20488;-69
2021/08/18 02:23:18;;;;;;;204.13;195.73;;;;;;;;;;4975131;28;20471;-70
2021/08/18 02:25:45;;;;;;;173.33;165.60;;;;;;;;;;4973285;28;20471;-69
2021/08/18 02:28:12;;;;;;;185.83;177.93;;;;;;;;;;4975125;28;20459;-69
2021/08/18 02:30:39;;;;;;;175.03;167.30;;;;;;;;;;4972307;28;20844;-69
2021/08/18 02:33:06;;;;;;;176.57;168.87;;;;;;;;;;4972060;28;20497;-70
2021/08/18 02:35:34;;;;;;;178.07;170.47;;;;;;;;;;4976635;28;20848;-69
2021/08/18 02:38:03;;;;;;;166.33;159.13;;;;;;;;;;4978073;28;20468;-69
2021/08/18 02:40:30;;;;;;;158.37;151.57;;;;;;;;;;4968658;28;20482;-69
2021/08/18 02:42:58;;;;;;;149.13;142.73;;;;;;;;;;4959431;28;20474;-69
2021/08/18 02:45:26;;;;;;;157.07;150.37;;;;;;;;;;4976968;28;20455;-69
2021/08/18 02:47:53;;;;;;;149.80;143.03;;;;;;;;;;4976103;28;20475;-69
2021/08/18 02:50:21;;;;;;;154.53;147.83;;;;;;;;;;4963825;28;20480;-70
2021/08/18 02:52:48;;;;;;;149.73;143.30;;;;;;;;;;4959963;28;20487;-70
2021/08/18 02:55:16;;;;;;;151.50;144.90;;;;;;;;;;4977145;28;20470;-70
2021/08/18 02:57:43;;;;;;;146.77;140.20;;;;;;;;;;4973416;28;20467;-70
2021/08/18 03:00:11;;;;;;;142.97;136.53;;;;;;;;;;4973405;28;21014;-70
2021/08/18 03:02:38;;;;;;;143.70;137.33;;;;;;;;;;4976429;28;20446;-71
2021/08/18 03:05:06;;;;;;;146.17;139.67;;;;;;;;;;4974486;28;20474;-71
2021/08/18 03:07:33;;;;;;;148.10;141.57;;;;;;;;;;4974242;28;20462;-71
2021/08/18 03:10:00;;;;;;;140.57;134.07;;;;;;;;;;4976762;28;20489;-71
2021/08/18 03:12:29;;;;;;;148.70;142.10;;;;;;;;;;4976365;28;20489;-70
2021/08/18 03:14:56;;;;;;;126.77;120.80;;;;;;;;;;4974004;28;20472;-70
2021/08/18 03:17:23;;;;;;;131.20;125.00;;;;;;;;;;4975042;28;20455;-70
2021/08/18 03:19:50;;;;;;;127.93;122.03;;;;;;;;;;4973197;28;20501;-69
2021/08/18 03:22:17;;;;;;;131.57;125.13;;;;;;;;;;4974435;28;20455;-69
2021/08/18 03:24:44;;;;;;;132.87;126.07;;;;;;;;;;4973780;28;20475;-69
2021/08/18 03:27:11;;;;;;;135.90;130.00;;;;;;;;;;4973133;28;20971;-69
2021/08/18 03:29:40;;;;;;;131.37;125.37;;;;;;;;;;4973989;28;20498;-70
2021/08/18 03:32:07;;;;;;;131.03;125.23;;;;;;;;;;4961736;28;21253;-70
2021/08/18 03:34:34;;;;;;;132.47;126.57;;;;;;;;;;4970148;28;21040;-69
2021/08/18 03:37:01;;;;;;;121.30;115.80;;;;;;;;;;4973040;28;20467;-70
2021/08/18 03:39:29;;;;;;;118.90;113.07;;;;;;;;;;4973055;28;20855;-71
2021/08/18 03:41:56;;;;;;;120.20;114.83;;;;;;;;;;4974412;28;20440;-70
2021/08/18 03:44:23;;;;;;;111.30;105.87;;;;;;;;;;4959398;28;20969;-71
2021/08/18 03:46:51;;;;;;;111.07;105.67;;;;;;;;;;4973411;28;20961;-71
2021/08/18 03:49:18;;;;;;;114.17;108.47;;;;;;;;;;4969065;28;20478;-71
2021/08/18 03:51:46;;;;;;;117.97;112.27;;;;;;;;;;4973479;28;20967;-71
2021/08/18 03:54:13;;;;;;;115.13;109.53;;;;;;;;;;4972079;28;20577;-70
2021/08/18 03:56:40;;;;;;;186.07;175.17;;;;;;;;;;4976051;28;20841;-71
2021/08/18 03:59:07;;;;;;;176.70;166.70;;;;;;;;;;4973441;28;20768;-70
2021/08/18 04:01:34;;;;;;;171.30;160.97;;;;;;;;;;4972040;28;20475;-70
2021/08/18 04:04:03;;;;;;;143.43;134.23;;;;;;;;;;4972709;28;20463;-70
2021/08/18 04:06:30;;;;;;;138.57;129.90;;;;;;;;;;4972014;28;20489;-70
2021/08/18 04:08:58;;;;;;;124.17;115.47;;;;;;;;;;4972189;28;20481;-70
2021/08/18 04:11:25;;;;;;;117.40;109.07;;;;;;;;;;4973482;28;20487;-71
2021/08/18 04:13:52;;;;;;;118.00;109.30;;;;;;;;;;4973035;28;20491;-72
2021/08/18 04:16:20;;;;;;;113.20;104.90;;;;;;;;;;4974300;28;20459;-71
2021/08/18 04:18:47;;;;;;;117.53;109.20;;;;;;;;;;4970951;28;20472;-71
2021/08/18 04:21:15;;;;;;;111.00;102.70;;;;;;;;;;4973244;28;20994;-70
2021/08/18 04:23:42;;;;;;;127.97;119.27;;;;;;;;;;4971493;28;20464;-71
2021/08/18 04:26:10;;;;;;;114.67;106.20;;;;;;;;;;4972985;28;20981;-71
2021/08/18 04:28:37;;;;;;;130.60;121.30;;;;;;;;;;4969501;28;20481;-71
2021/08/18 04:31:04;;;;;;;111.87;103.47;;;;;;;;;;4974458;28;20477;-72
2021/08/18 04:33:32;;;;;;;134.23;125.30;;;;;;;;;;4970893;28;20499;-72
2021/08/18 04:35:59;;;;;;;113.47;104.90;;;;;;;;;;4972640;28;21013;-69
2021/08/18 04:38:27;;;;;;;131.60;123.10;;;;;;;;;;4973110;28;20497;-70
2021/08/18 04:40:54;;;;;;;121.60;112.30;;;;;;;;;;4973999;28;20471;-70
2021/08/18 04:43:21;;;;;;;122.60;113.50;;;;;;;;;;4972637;28;20463;-72
2021/08/18 04:45:49;;;;;;;123.87;114.67;;;;;;;;;;4972427;28;20650;-70
2021/08/18 04:48:16;;;;;;;121.93;112.70;;;;;;;;;;4971661;28;20467;-70
2021/08/18 04:50:43;;;;;;;126.57;117.00;;;;;;;;;;4972683;28;20501;-70
2021/08/18 04:53:10;;;;;;;126.60;117.13;;;;;;;;;;4977040;28;20509;-70
2021/08/18 04:55:39;;;;;;;126.43;117.03;;;;;;;;;;4974637;28;20471;-70
2021/08/18 04:58:06;;;;;;;114.93;106.00;;;;;;;;;;4975742;28;20469;-70
2021/08/18 05:00:33;;;;;;;136.57;127.30;;;;;;;;;;4972619;28;20489;-70
2021/08/18 05:03:01;;;;;;;130.20;120.87;;;;;;;;;;4976513;28;20562;-70
2021/08/18 05:05:28;;;;;;;126.17;116.67;;;;;;;;;;4975049;28;20467;-70
2021/08/18 05:07:58;;;;;;;205.57;191.93;;;;;;;;;;4975944;28;20455;-70
2021/08/18 05:10:25;;;;;;;181.17;169.77;;;;;;;;;;4973846;28;21021;-70
2021/08/18 05:12:53;;;;;;;131.20;121.80;;;;;;;;;;4976554;28;20451;-71
2021/08/18 05:15:20;;;;;;;126.17;117.00;;;;;;;;;;4974406;28;20475;-70
2021/08/18 05:17:47;;;;;;;134.60;125.70;;;;;;;;;;4976209;28;20453;-71
2021/08/18 05:20:15;;;;;;;130.27;120.57;;;;;;;;;;4974489;28;20578;-70
2021/08/18 05:22:42;;;;;;;139.87;129.97;;;;;;;;;;4976277;28;20935;-70
2021/08/18 05:25:10;;;;;;;139.00;129.23;;;;;;;;;;4973577;28;20467;-70
2021/08/18 05:27:37;;;;;;;130.90;121.10;;;;;;;;;;4974904;28;20466;-69
2021/08/18 05:30:06;;;;;;;134.57;124.80;;;;;;;;;;4974209;28;20483;-69
2021/08/18 05:32:33;;;;;;;131.10;121.20;;;;;;;;;;4970412;28;20467;-70
2021/08/18 05:35:01;;;;;;;136.40;126.30;;;;;;;;;;4976509;28;20857;-70
2021/08/18 05:37:28;;;;;;;142.83;132.03;;;;;;;;;;4974700;28;20463;-71
2021/08/18 05:39:55;;;;;;;142.80;132.40;;;;;;;;;;4970248;28;20849;-70
2021/08/18 05:42:22;;;;;;;135.17;125.20;;;;;;;;;;4968076;28;20490;-71
2021/08/18 05:44:49;;;;;;;136.30;126.00;;;;;;;;;;4975918;28;20459;-70
2021/08/18 05:47:17;;;;;;;150.53;140.00;;;;;;;;;;4974403;28;20485;-70
2021/08/18 05:49:45;;;;;;;142.23;131.97;;;;;;;;;;4973629;28;20478;-70
2021/08/18 05:52:12;;;;;;;144.73;134.63;;;;;;;;;;4977080;28;20455;-69
2021/08/18 05:54:39;;;;;;;152.57;142.27;;;;;;;;;;4971356;28;20487;-70
2021/08/18 05:57:06;;;;;;;140.20;130.10;;;;;;;;;;4977091;28;20955;-70
2021/08/18 05:59:33;;;;;;;120.13;111.13;;;;;;;;;;4972847;28;20494;-70
2021/08/18 06:02:00;;;;;;;134.80;124.83;;;;;;;;;;4975972;28;20472;-70
2021/08/18 06:04:29;;;;;;;166.90;155.00;;;;;;;;;;4976025;28;20468;-70
2021/08/18 06:06:56;;;;;;;185.83;172.40;;;;;;;;;;4975284;28;20478;-69
2021/08/18 06:09:23;;;;;;;242.17;226.07;;;;;;;;;;4975430;28;20455;-69
2021/08/18 06:11:50;;;;;;;324.27;304.00;;;;;;;;;;4968288;28;20475;-69
2021/08/18 06:14:17;;;;;;;382.43;360.23;;;;;;;;;;4971507;28;20535;-69
2021/08/18 06:16:45;;;;;;;408.50;384.97;;;;;;;;;;4975324;28;20467;-69
2021/08/18 06:19:12;;;;;;;438.17;413.20;;;;;;;;;;4975888;28;20513;-69
2021/08/18 06:21:40;;;;;;;416.60;394.20;;;;;;;;;;4974275;28;20479;-69
2021/08/18 06:24:17;;;;;;;387.80;366.40;;;;;;;;;;4975053;28;20461;-69
2021/08/18 06:26:44;;;;;;;407.07;386.33;;;;;;;;;;4974419;28;20467;-69
2021/08/18 06:29:11;;;;;;;388.10;367.30;;;;;;;;;;4973660;28;20554;-69
2021/08/18 06:31:40;;;;;;;366.33;346.63;;;;;;;;;;4975538;28;20822;-69
2021/08/18 06:34:07;;;;;;;360.90;342.20;;;;;;;;;;4973985;28;20494;-69
2021/08/18 06:36:34;;;;;;;337.37;319.83;;;;;;;;;;4972893;28;20996;-69
2021/08/18 06:39:02;;;;;;;319.20;302.73;;;;;;;;;;4975124;28;20454;-69
2021/08/18 06:41:29;;;;;;;326.07;309.17;;;;;;;;;;4974325;28;20479;-69
2021/08/18 06:43:56;;;;;;;328.53;311.13;;;;;;;;;;4975595;28;20443;-69
2021/08/18 06:46:24;;;;;;;311.70;295.63;;;;;;;;;;4971405;28;20997;-69
2021/08/18 06:48:51;;;;;;;304.00;288.07;;;;;;;;;;4974811;28;20571;-70
2021/08/18 06:51:18;;;;;;;293.57;278.03;;;;;;;;;;4985420;28;20446;-75
2021/08/18 06:53:45;;;;;;;293.93;277.90;;;;;;;;;;4977524;28;20502;-72
2021/08/18 06:56:13;;;;;;;303.33;287.47;;;;;;;;;;4978881;28;20847;-67
2021/08/18 06:58:40;;;;;;;310.07;293.27;;;;;;;;;;4965476;28;20470;-70
2021/08/18 07:01:08;;;;;;;308.97;293.00;;;;;;;;;;4975232;28;20469;-66
2021/08/18 07:03:35;;;;;;;311.70;296.00;;;;;;;;;;4973719;28;20471;-67
2021/08/18 07:06:02;;;;;;;306.40;290.97;;;;;;;;;;4975236;28;20458;-67
2021/08/18 07:08:29;;;;;;;282.17;267.07;;;;;;;;;;4971711;28;20473;-67
2021/08/18 07:10:56;;;;;;;285.63;271.43;;;;;;;;;;4974463;28;20530;-66
2021/08/18 07:13:25;;;;;;;255.83;241.33;;;;;;;;;;4974388;28;20462;-67
2021/08/18 07:15:52;;;;;;;277.93;263.50;;;;;;;;;;4964762;28;20978;-67
2021/08/18 07:18:19;;;;;;;268.63;254.53;;;;;;;;;;4956087;29;20452;-68
2021/08/18 07:20:46;;;;;;;266.70;253.10;;;;;;;;;;4969082;28;20482;-65
2021/08/18 07:23:13;;;;;;;274.07;259.77;;;;;;;;;;4974995;28;20456;-66
2021/08/18 07:25:40;;;;;;;268.97;255.17;;;;;;;;;;4962914;28;20808;-66
2021/08/18 07:28:08;;;;;;;266.73;253.43;;;;;;;;;;4955681;29;20440;-67
2021/08/18 07:30:37;;;;;;;258.07;244.73;;;;;;;;;;4968760;28;20488;-66
2021/08/18 07:33:04;;;;;;;249.17;236.97;;;;;;;;;;4955612;29;20555;-67
2021/08/18 07:35:31;;;;;;;247.60;235.70;;;;;;;;;;4955899;28;20484;-67
2021/08/18 07:37:58;;;;;;;237.63;225.67;;;;;;;;;;4955076;29;21043;-67
2021/08/18 07:40:26;;;;;;;240.37;228.67;;;;;;;;;;4962900;28;20529;-67
2021/08/18 07:42:55;;;;;;;246.90;234.90;;;;;;;;;;4954904;29;20448;-66
2021/08/18 07:45:22;;;;;;;241.63;229.53;;;;;;;;;;4962012;28;20802;-67
2021/08/18 07:47:51;;;;;;;236.93;225.83;;;;;;;;;;4967045;28;20455;-66
2021/08/18 07:50:18;;;;;;;240.50;229.60;;;;;;;;;;4973984;28;20842;-67
2021/08/18 07:52:45;;;;;;;247.37;235.87;;;;;;;;;;4974656;28;20461;-67
2021/08/18 07:55:13;;;;;;;231.30;220.20;;;;;;;;;;4973269;28;20483;-67
2021/08/18 07:57:40;;;;;;;243.37;232.30;;;;;;;;;;4973061;28;20477;-67
2021/08/18 08:00:07;;;;;;;244.60;233.43;;;;;;;;;;4964644;28;20550;-67
2021/08/18 08:02:34;;;;;;;230.00;219.60;;;;;;;;;;4955058;28;20452;-67
2021/08/18 08:05:07;;;;;;;213.80;203.57;;;;;;;;;;4956378;28;20808;-67
2021/08/18 08:07:34;;;;;;;218.87;208.70;;;;;;;;;;4974641;28;20875;-66
2021/08/18 08:10:01;;;;;;;210.20;200.23;;;;;;;;;;4973834;28;20487;-67
2021/08/18 08:12:28;;;;;;;197.60;188.00;;;;;;;;;;4974426;28;20505;-67
2021/08/18 08:14:55;;;;;;;203.10;193.67;;;;;;;;;;4974380;28;20490;-67
2021/08/18 08:17:22;;;;;;;203.33;193.77;;;;;;;;;;4974342;28;20467;-67
2021/08/18 08:19:50;;;;;;;201.37;192.17;;;;;;;;;;4974964;28;20838;-67
2021/08/18 08:22:18;;;;;;;190.27;181.27;;;;;;;;;;4977322;28;20451;-67
2021/08/18 08:24:46;;;;;;;193.90;184.90;;;;;;;;;;4979170;28;20465;-67
2021/08/18 08:27:13;;;;;;;184.73;175.63;;;;;;;;;;4973321;28;20575;-67
2021/08/18 08:29:40;;;;;;;193.27;184.27;;;;;;;;;;4973299;28;22219;-67
2021/08/18 08:32:07;;;;;;;194.23;185.10;;;;;;;;;;4970111;28;20459;-67
2021/08/18 08:34:34;;;;;;;206.13;196.53;;;;;;;;;;4977118;28;20490;-67
2021/08/18 08:37:01;;;;;;;201.90;192.80;;;;;;;;;;4975849;28;20451;-67
2021/08/18 08:39:30;;;;;;;196.53;187.30;;;;;;;;;;4977053;28;20452;-67
2021/08/18 08:41:57;;;;;;;210.00;199.97;;;;;;;;;;4977509;28;20455;-67
2021/08/18 08:44:25;;;;;;;211.90;201.90;;;;;;;;;;4970445;28;20443;-67
2021/08/18 08:46:52;;;;;;;203.83;194.43;;;;;;;;;;4973334;28;20460;-67
2021/08/18 08:49:21;;;;;;;207.90;198.30;;;;;;;;;;4963644;28;20810;-66
2021/08/18 08:51:49;;;;;;;224.30;214.30;;;;;;;;;;4977297;28;20491;-67
2021/08/18 08:54:17;;;;;;;208.40;198.07;;;;;;;;;;4975111;28;20480;-68
2021/08/18 08:56:46;;;;;;;221.40;210.63;;;;;;;;;;4976504;28;20460;-68
2021/08/18 08:59:13;;;;;;;228.70;218.10;;;;;;;;;;4968644;28;20970;-68
2021/08/18 09:01:59;;;;;;;225.17;214.67;;;;;;;;;;4958891;28;20454;-68
2021/08/18 09:04:29;;;;;;;243.53;232.47;;;;;;;;;;4958220;29;20451;-68
2021/08/18 09:07:21;;;;;;;240.20;229.07;;;;;;;;;;4963388;28;20458;-70
2021/08/18 09:09:52;;;;;;;282.83;270.60;;;;;;;;;;4967219;28;20494;-70
2021/08/18 09:12:21;;;;;;;251.57;240.43;;;;;;;;;;4964851;28;20447;-71
2021/08/18 09:14:49;;;;;;;261.10;249.80;;;;;;;;;;4960776;28;21000;-71
2021/08/18 09:17:29;;;;;;;269.47;257.97;;;;;;;;;;4964403;28;20462;-71
2021/08/18 09:20:00;;;;;;;260.00;248.83;;;;;;;;;;4977107;28;21057;-72
2021/08/18 09:22:27;;;;;;;246.80;236.27;;;;;;;;;;4978149;28;20466;-71
2021/08/18 09:25:08;;;;;;;258.30;247.33;;;;;;;;;;4977203;28;20502;-72
2021/08/18 09:27:37;;;;;;;262.93;252.13;;;;;;;;;;4969174;28;20459;-72
2021/08/18 09:30:04;;;;;;;260.00;249.20;;;;;;;;;;4980244;28;20467;-72
2021/08/18 09:32:33;;;;;;;242.47;231.83;;;;;;;;;;4964497;28;20456;-72
2021/08/18 09:35:01;;;;;;;246.40;235.83;;;;;;;;;;4975394;28;20558;-70
2021/08/18 09:37:29;;;;;;;243.87;233.43;;;;;;;;;;4981782;28;20455;-70
2021/08/18 09:39:56;;;;;;;227.83;217.87;;;;;;;;;;4979942;28;20482;-70
2021/08/18 09:42:32;;;;;;;258.83;247.83;;;;;;;;;;4983584;28;20451;-70
2021/08/18 09:45:20;;;;;;;282.27;269.67;;;;;;;;;;5026886;22;20502;-70
2021/08/18 09:48:05;;;;;;;286.13;273.13;;;;;;;;;;5008312;28;20450;-70
2021/08/18 09:50:39;;;;;;;287.97;274.93;;;;;;;;;;5014174;28;20451;-69
2021/08/18 09:53:07;;;;;;;303.70;290.60;;;;;;;;;;5014641;28;20512;-69
2021/08/18 09:55:34;;;;;;;281.93;269.63;;;;;;;;;;5011604;28;20512;-69
2021/08/18 09:58:01;;;;;;;293.63;280.43;;;;;;;;;;5015408;28;20449;-69
2021/08/18 10:00:29;;;;;;;295.70;282.60;;;;;;;;;;5014237;28;20453;-69
2021/08/18 10:02:56;;;;;;;288.90;276.33;;;;;;;;;;5014915;28;20480;-69
2021/08/18 10:05:30;;;;;;;277.60;265.60;;;;;;;;;;5014674;28;20472;-69
2021/08/18 10:07:58;;;;;;;277.77;265.47;;;;;;;;;;5013723;28;20508;-69
2021/08/18 10:10:25;;;;;;;294.73;282.10;;;;;;;;;;5003153;28;20450;-69
2021/08/18 10:12:53;;;;;;;299.03;286.23;;;;;;;;;;5004720;28;20456;-69
2021/08/18 10:15:20;;;;;;;267.37;255.90;;;;;;;;;;5014903;28;20496;-69
2021/08/18 10:17:48;;;;;;;216.33;205.93;;;;;;;;;;5011804;28;20454;-69
2021/08/18 10:20:16;;;;;;;257.10;246.33;;;;;;;;;;5014735;28;20460;-69
2021/08/18 10:22:44;;;;;;;242.37;231.67;;;;;;;;;;5013595;28;20465;-69
2021/08/18 10:25:33;;;;;;;258.37;247.03;;;;;;;;;;5015144;28;20480;-69
2021/08/18 10:28:00;;;;;;;256.90;245.97;;;;;;;;;;4994619;28;20458;-70
2021/08/18 10:30:28;;;;;;;257.93;246.97;;;;;;;;;;5029812;28;20974;-69
2021/08/18 10:32:55;;;;;;;254.20;243.10;;;;;;;;;;5026496;28;20460;-70
2021/08/18 10:35:41;;;;;;;279.27;267.47;;;;;;;;;;5017403;28;20851;-69
2021/08/18 10:38:26;;;;;;;272.93;261.03;;;;;;;;;;5009627;28;20468;-69
2021/08/18 10:40:55;;;;;;;261.70;250.10;;;;;;;;;;4998584;28;20485;-70
2021/08/18 10:43:41;;;;;;;294.97;282.57;;;;;;;;;;5013949;28;20453;-72
2021/08/18 10:46:08;;;;;;;272.07;260.47;;;;;;;;;;5014327;28;20444;-70
2021/08/18 10:48:53;;;;;;;262.60;251.40;;;;;;;;;;5013566;28;20457;-69
2021/08/18 10:51:35;;;;;;;242.20;231.80;;;;;;;;;;5014876;28;20452;-69
2021/08/18 10:54:35;;;;;;;215.50;206.20;;;;;;;;;;5010840;28;20557;-69
2021/08/18 10:57:04;;;;;;;191.00;182.23;;;;;;;;;;5014513;28;20460;-69
2021/08/18 10:59:58;;;;;;;184.40;176.13;;;;;;;;;;5012774;28;20545;-69
2021/08/18 11:02:44;;;;;;;178.20;170.20;;;;;;;;;;4960962;28;20472;-69
2021/08/18 11:05:14;;;;;;;164.60;156.87;;;;;;;;;;5004126;28;20468;-69
2021/08/18 11:07:56;;;;;;;154.33;147.10;;;;;;;;;;5014172;28;20460;-69
2021/08/18 11:10:23;;;;;;;150.10;143.07;;;;;;;;;;5005281;28;20453;-70
2021/08/18 11:12:56;;;;;;;146.93;139.87;;;;;;;;;;5013869;28;20903;-70
2021/08/18 11:15:53;;;;;;;142.17;135.37;;;;;;;;;;5013762;28;20531;-69
2021/08/18 11:18:20;;;;;;;139.10;132.40;;;;;;;;;;4952930;29;20972;-69
2021/08/18 11:20:49;;;;;;;140.70;134.07;;;;;;;;;;5000233;28;20453;-69
2021/08/18 11:23:16;;;;;;;145.60;138.90;;;;;;;;;;5014249;28;20449;-69
2021/08/18 11:25:44;;;;;;;133.50;127.03;;;;;;;;;;5013634;28;20820;-69
2021/08/18 11:28:22;;;;;;;130.23;124.13;;;;;;;;;;5014872;28;20448;-70
2021/08/18 11:30:56;;;;;;;126.33;120.13;;;;;;;;;;5002446;28;20442;-70
2021/08/18 11:33:24;;;;;;;121.73;115.73;;;;;;;;;;5015057;28;20429;-70
2021/08/18 11:35:51;;;;;;;125.17;119.27;;;;;;;;;;5013583;28;20484;-71
2021/08/18 11:38:19;;;;;;;126.53;120.53;;;;;;;;;;5010097;28;20450;-73
2021/08/18 11:40:49;;;;;;;127.70;121.60;;;;;;;;;;5005615;28;20454;-70
2021/08/18 11:43:16;;;;;;;128.10;122.40;;;;;;;;;;5015453;28;20453;-70
2021/08/18 11:45:51;;;;;;;122.53;116.80;;;;;;;;;;5014135;28;20438;-70
2021/08/18 11:48:22;;;;;;;92.77;87.50;;;;;;;;;;4994218;28;20439;-70
2021/08/18 11:50:52;;;;;;;106.00;100.70;;;;;;;;;;4997406;28;20511;-75
2021/08/18 11:53:21;;;;;;;102.47;97.23;;;;;;;;;;5014672;28;20453;-70
2021/08/18 11:55:48;;;;;;;95.17;90.17;;;;;;;;;;5014385;28;20564;-69
2021/08/18 11:58:15;;;;;;;98.00;93.10;;;;;;;;;;5014101;28;20466;-70
2021/08/18 12:00:43;;;;;;;96.20;91.30;;;;;;;;;;5012871;28;20483;-70
2021/08/18 12:03:11;;;;;;;79.13;74.73;;;;;;;;;;5013804;28;20530;-70
2021/08/18 12:05:39;;;;;;;97.43;92.80;;;;;;;;;;4993719;28;20451;-70
2021/08/18 12:08:07;;;;;;;80.37;75.80;;;;;;;;;;4994581;28;20537;-70
2021/08/18 12:10:41;;;;;;;77.30;72.80;;;;;;;;;;5009452;28;20481;-70
2021/08/18 12:13:10;;;;;;;74.17;69.87;;;;;;;;;;5013545;28;20790;-70
2021/08/18 12:15:42;;;;;;;77.07;72.77;;;;;;;;;;5012071;28;20474;-70
2021/08/18 12:18:24;;;;;;;73.33;69.20;;;;;;;;;;5013753;28;20442;-70
2021/08/18 12:20:52;;;;;;;66.40;62.07;;;;;;;;;;5012974;28;20552;-70
2021/08/18 12:23:25;;;;;;;66.77;62.70;;;;;;;;;;5014699;28;20450;-70
2021/08/18 12:25:52;;;;;;;69.40;65.30;;;;;;;;;;5014038;28;20449;-72
2021/08/18 12:28:20;;;;;;;66.60;62.60;;;;;;;;;;5013242;28;20442;-70
2021/08/18 12:30:57;;;;;;;81.73;77.00;;;;;;;;;;5012727;28;20441;-70
2021/08/18 12:33:24;;;;;;;69.37;65.30;;;;;;;;;;5012738;28;21145;-70
2021/08/18 12:36:06;;;;;;;75.20;71.10;;;;;;;;;;4993353;28;20544;-70
2021/08/18 12:38:33;;;;;;;74.00;69.90;;;;;;;;;;5012971;28;20441;-70
2021/08/18 12:41:05;;;;;;;66.40;62.37;;;;;;;;;;5012330;28;20457;-70
2021/08/18 12:43:32;;;;;;;65.07;61.40;;;;;;;;;;5011428;28;20862;-70
2021/08/18 12:45:59;;;;;;;67.67;63.83;;;;;;;;;;5012432;28;20445;-71
2021/08/18 12:48:29;;;;;;;60.80;57.20;;;;;;;;;;5012567;28;20458;-70
2021/08/18 12:50:59;;;;;;;61.67;58.07;;;;;;;;;;5012575;28;20544;-70
2021/08/18 12:53:28;;;;;;;60.83;56.93;;;;;;;;;;5013003;28;20858;-73
2021/08/18 12:55:55;;;;;;;57.77;54.47;;;;;;;;;;5008063;28;20490;-71
2021/08/18 12:58:23;;;;;;;59.17;55.77;;;;;;;;;;5006033;28;20451;-70
2021/08/18 13:00:50;;;;;;;55.73;52.33;;;;;;;;;;5012369;28;20545;-69
2021/08/18 13:03:18;;;;;;;60.97;57.37;;;;;;;;;;5012609;28;20532;-70
2021/08/18 13:05:45;;;;;;;58.70;55.10;;;;;;;;;;5012527;28;20852;-72
2021/08/18 13:08:12;;;;;;;63.17;59.47;;;;;;;;;;5012282;28;20468;-70
2021/08/18 13:10:41;;;;;;;64.90;61.20;;;;;;;;;;5012535;28;20450;-73
2021/08/18 13:13:08;;;;;;;64.87;61.20;;;;;;;;;;5010929;28;20454;-70
2021/08/18 13:15:35;;;;;;;64.80;61.10;;;;;;;;;;4996503;28;20485;-70
2021/08/18 13:18:02;;;;;;;68.33;64.30;;;;;;;;;;5007972;28;20965;-70
2021/08/18 13:20:30;;;;;;;68.87;64.87;;;;;;;;;;5015941;28;20464;-70
2021/08/18 13:22:57;;;;;;;67.03;63.23;;;;;;;;;;5015846;28;20460;-70
2021/08/18 13:25:24;;;;;;;69.33;65.43;;;;;;;;;;5015638;28;20996;-70
2021/08/18 13:27:52;;;;;;;74.53;70.23;;;;;;;;;;5015883;28;20462;-70
2021/08/18 13:30:23;;;;;;;79.63;75.63;;;;;;;;;;5016070;28;20833;-71
2021/08/18 13:32:50;;;;;;;73.30;69.40;;;;;;;;;;5016112;28;20519;-70
2021/08/18 13:35:18;;;;;;;72.43;68.37;;;;;;;;;;5015663;28;20491;-72
2021/08/18 13:37:45;;;;;;;69.43;65.43;;;;;;;;;;5016038;28;20487;-70
2021/08/18 13:40:12;;;;;;;66.83;63.13;;;;;;;;;;5015560;28;20472;-73
2021/08/18 13:42:40;;;;;;;66.70;63.03;;;;;;;;;;5015711;28;20845;-70
2021/08/18 13:45:09;;;;;;;69.17;65.47;;;;;;;;;;5015693;28;21000;-72
2021/08/18 13:47:36;;;;;;;156.60;149.40;;;;;;;;;;5013776;28;20456;-71
2021/08/18 13:50:03;;;;;;;251.07;239.27;;;;;;;;;;5014401;28;20544;-69
2021/08/18 13:52:30;;;;;;;283.20;270.00;;;;;;;;;;5014781;28;20460;-71
2021/08/18 13:54:57;;;;;;;296.60;282.77;;;;;;;;;;5014208;28;20539;-69
2021/08/18 13:57:24;;;;;;;327.67;312.17;;;;;;;;;;5015672;28;20486;-69
2021/08/18 13:59:52;;;;;;;340.60;324.50;;;;;;;;;;5015539;28;20449;-69
2021/08/18 14:02:20;;;;;;;336.73;320.73;;;;;;;;;;5008650;28;20462;-70
2021/08/18 14:04:47;;;;;;;324.83;309.53;;;;;;;;;;5015091;28;20477;-69